Decoded Metar for KSTC (ST. CLOUD in MN, USA) (IATA:STC) | Meteo·Mobile Aviation Weather
aviador You're here:

KSTC Decoded Metar

ST. CLOUD in MN, USA
Report Time2019-03-20 23:53:00
UTC Time2019-03-21 00:10:05
Flight Rules vfr VFR
Wind350° at 07 kt
W.Decomp.*RWY 31: 5.6 kt HW 4.2 kt RCW
RWY 05: 3.2 kt HW 6.2 kt LCW
W.Rank350° ranks 13
Current wind is below 350° avg. (7.9)
Visibility9999 m
Phenomena:N/A
Clouds:Overcast 039 Hf
Expected CloudBase > 2,000 ft AGL from Temp-Dew spread
Ceiling3,900 ft
Temp04°C (ISA -9)
Dew Point-1°C (70% RH)
AAT-0.6°C
QNH1018 hPa
Density Alt-141 ft
Elevation1,030 ft
Report Wrong Elevation
Raw Report
KSTC 202353Z AUTO 35007KT 10SM OVC039 04/M01 A3005 RMK AO2 SLP195
T00391011 10067 20039 51029=

Extra information for KSTC:More info

Metar Taf Metar & Taf Last 4 Metars F.Rules Stats Wind Profile Meteogram Temp Stats Airport Information Weather charts Add Link Nearby VenuesMetar ALERT Operation Metar Decoded Social comments

AIRNAV info for KSTC